createdAt,value
2018-09-27T00:01:05.480Z,71.90
2018-09-27T00:04:38.684Z,72.10
2018-09-27T00:08:11.931Z,72.40
2018-09-27T00:11:45.166Z,72.70
2018-09-27T00:15:18.388Z,73.50
2018-09-27T00:18:51.617Z,73.50
2018-09-27T00:22:24.850Z,73.90
2018-09-27T00:25:58.080Z,74.20
2018-09-27T00:29:31.303Z,74.30
2018-09-27T00:33:04.531Z,74.30
2018-09-27T00:36:37.772Z,74.30
2018-09-27T00:40:11.008Z,74.50
2018-09-27T00:43:44.247Z,74.40
2018-09-27T00:47:17.464Z,74.50
2018-09-27T00:50:50.697Z,74.50
2018-09-27T00:54:23.949Z,74.50
2018-09-27T00:57:57.155Z,74.90
2018-09-27T01:01:30.383Z,75.10
2018-09-27T01:05:03.638Z,75.20
2018-09-27T01:08:36.856Z,75.40
2018-09-27T01:12:10.074Z,77.00
2018-09-27T01:15:43.300Z,77.10
2018-09-27T01:19:16.563Z,77.50
2018-09-27T01:22:49.786Z,77.70
2018-09-27T01:26:23.005Z,77.50
2018-09-27T01:29:56.236Z,77.60
2018-09-27T01:33:29.453Z,77.40
2018-09-27T01:37:02.686Z,77.40
2018-09-27T01:40:35.918Z,77.40
2018-09-27T01:44:09.129Z,77.60
2018-09-27T01:47:42.371Z,78.00
2018-09-27T01:51:15.631Z,78.00
2018-09-27T01:54:48.863Z,78.30
2018-09-27T01:58:22.072Z,78.70
2018-09-27T02:01:55.292Z,79.00
2018-09-27T02:05:28.556Z,79.30
2018-09-27T02:09:01.760Z,79.60
2018-09-27T02:12:34.994Z,79.90
2018-09-27T02:16:08.220Z,79.90
2018-09-27T02:19:41.640Z,79.80
2018-09-27T02:23:14.859Z,79.80
2018-09-27T02:26:48.121Z,79.90
2018-09-27T02:30:21.391Z,80.10
2018-09-27T02:33:54.614Z,80.20
2018-09-27T02:37:27.849Z,80.60
2018-09-27T02:41:01.063Z,80.80
2018-09-27T02:44:34.268Z,80.70
2018-09-27T02:48:07.473Z,80.60
2018-09-27T02:51:40.682Z,80.60
2018-09-27T02:55:13.945Z,81.20
2018-09-27T02:58:47.174Z,80.50
2018-09-27T03:02:20.399Z,80.50
2018-09-27T03:05:53.629Z,80.70
2018-09-27T03:09:26.851Z,80.90
2018-09-27T03:13:00.064Z,81.20
2018-09-27T03:16:33.292Z,81.40
2018-09-27T03:20:06.620Z,81.70
2018-09-27T03:23:39.843Z,81.90
2018-09-27T03:27:13.060Z,82.30
2018-09-27T03:30:46.385Z,82.40
2018-09-27T03:34:19.698Z,82.50
2018-09-27T03:37:53.355Z,82.60
2018-09-27T03:41:26.678Z,83.80
2018-09-27T03:44:59.890Z,82.90
2018-09-27T03:48:33.111Z,83.00
2018-09-27T03:52:06.447Z,83.00
2018-09-27T03:55:39.676Z,83.20
2018-09-27T03:59:12.901Z,83.30
2018-09-27T04:02:46.130Z,83.40
2018-09-27T04:06:19.348Z,83.40
2018-09-27T04:09:52.561Z,83.40
2018-09-27T04:13:25.792Z,83.30
2018-09-27T04:16:59.021Z,83.60
2018-09-27T04:20:36.460Z,83.50
2018-09-27T04:24:09.823Z,83.50
2018-09-27T04:27:43.028Z,83.50
2018-09-27T04:31:16.250Z,83.50
2018-09-27T04:34:49.467Z,83.40
2018-09-27T04:38:22.691Z,83.40
2018-09-27T04:41:55.920Z,83.30
2018-09-27T04:45:29.165Z,83.50
2018-09-27T04:49:02.390Z,83.50
2018-09-27T04:52:35.660Z,83.50
2018-09-27T04:56:08.964Z,83.50
2018-09-27T04:59:42.243Z,83.60
2018-09-27T05:03:15.615Z,83.50
2018-09-27T05:06:48.848Z,83.50
2018-09-27T05:10:22.073Z,84.30
2018-09-27T05:13:55.316Z,83.80
2018-09-27T05:17:28.545Z,84.20
2018-09-27T05:21:01.755Z,84.40
2018-09-27T05:24:34.985Z,84.40
2018-09-27T05:28:08.361Z,84.50
2018-09-27T05:31:41.579Z,84.60
2018-09-27T05:35:14.805Z,84.40
2018-09-27T05:38:48.036Z,84.60
2018-09-27T05:42:21.293Z,84.70
2018-09-27T05:45:54.496Z,84.60
2018-09-27T05:49:27.727Z,84.90
2018-09-27T05:53:00.956Z,84.90
2018-09-27T05:56:34.180Z,84.70
2018-09-27T06:00:07.485Z,84.60
2018-09-27T06:03:40.808Z,84.40
2018-09-27T06:07:13.976Z,84.20
2018-09-27T06:10:47.204Z,84.30
2018-09-27T06:14:20.420Z,84.20
2018-09-27T06:17:53.649Z,84.30
2018-09-27T06:21:26.917Z,84.20
2018-09-27T06:25:00.337Z,84.00
2018-09-27T06:28:33.592Z,83.80
2018-09-27T06:32:06.910Z,83.80
2018-09-27T06:35:40.127Z,83.70
2018-09-27T06:39:13.363Z,83.60
2018-09-27T06:42:46.618Z,83.50
2018-09-27T06:46:19.828Z,83.50
2018-09-27T06:49:53.061Z,83.30
2018-09-27T06:53:26.289Z,83.00
2018-09-27T06:56:59.545Z,83.10
2018-09-27T07:00:32.809Z,82.90
2018-09-27T07:04:06.145Z,82.60
2018-09-27T07:07:39.365Z,82.50
2018-09-27T07:11:12.650Z,81.30
2018-09-27T07:14:45.849Z,81.30
2018-09-27T07:18:19.073Z,81.00
2018-09-27T07:21:52.320Z,80.60
2018-09-27T07:25:25.548Z,80.40
2018-09-27T07:28:58.861Z,80.30
2018-09-27T07:32:32.148Z,80.00
2018-09-27T07:36:05.740Z,79.80
2018-09-27T07:39:38.976Z,79.40
2018-09-27T07:43:12.304Z,78.80
2018-09-27T07:46:45.532Z,78.30
2018-09-27T07:50:18.763Z,77.60
2018-09-27T07:53:51.993Z,77.20
2018-09-27T07:57:25.243Z,76.40
2018-09-27T08:00:58.480Z,75.90
2018-09-27T08:04:31.718Z,75.10
2018-09-27T08:08:04.976Z,74.40
2018-09-27T08:11:39.035Z,73.90
2018-09-27T08:15:12.205Z,72.70
2018-09-27T08:18:45.439Z,72.00
2018-09-27T08:22:18.727Z,71.00
2018-09-27T08:25:51.964Z,70.10
2018-09-27T08:29:25.211Z,68.60
2018-09-27T08:32:58.455Z,67.50
2018-09-27T08:36:31.683Z,66.40
2018-09-27T08:40:04.928Z,65.00
2018-09-27T08:43:38.165Z,64.10
2018-09-27T08:47:11.413Z,63.20
2018-09-27T08:50:44.637Z,61.30
2018-09-27T08:54:17.868Z,60.00
2018-09-27T08:57:51.129Z,60.00
2018-09-27T09:01:24.352Z,59.40
2018-09-27T09:04:57.600Z,58.90
2018-09-27T09:08:30.845Z,58.30
2018-09-27T09:12:04.107Z,57.20
2018-09-27T09:15:37.397Z,56.40
2018-09-27T09:19:10.632Z,55.80
2018-09-27T09:22:43.868Z,54.80
2018-09-27T09:26:17.095Z,54.40
2018-09-27T09:29:50.341Z,52.90
2018-09-27T09:33:23.781Z,51.90
2018-09-27T09:36:57.011Z,50.70
2018-09-27T09:40:30.231Z,50.20
2018-09-27T09:44:03.480Z,49.70
2018-09-27T09:47:36.723Z,48.80
2018-09-27T09:51:09.960Z,48.50
2018-09-27T09:54:43.192Z,48.10
2018-09-27T09:58:16.452Z,47.60
2018-09-27T10:01:49.698Z,46.70
2018-09-27T10:05:22.937Z,44.60
2018-09-27T10:08:56.246Z,44.60
2018-09-27T10:12:29.443Z,44.10
2018-09-27T10:16:02.713Z,43.70
2018-09-27T10:19:36.247Z,42.90
2018-09-27T10:23:09.963Z,41.60
2018-09-27T10:26:43.208Z,41.30
2018-09-27T10:30:16.445Z,40.70
2018-09-27T10:33:49.665Z,40.30
2018-09-27T10:37:22.884Z,40.10
2018-09-27T10:40:56.120Z,39.80
2018-09-27T10:44:29.342Z,40.20
2018-09-27T10:48:02.583Z,40.10
2018-09-27T10:51:35.810Z,39.40
2018-09-27T10:55:09.082Z,39.60
2018-09-27T10:58:42.296Z,39.20
2018-09-27T11:02:15.535Z,38.60
2018-09-27T11:05:48.770Z,37.80
2018-09-27T11:09:22.011Z,37.10
2018-09-27T11:12:55.236Z,36.40
2018-09-27T11:16:28.512Z,35.80
2018-09-27T11:20:01.691Z,36.00
2018-09-27T11:23:34.924Z,36.70
2018-09-27T11:27:08.356Z,36.20
2018-09-27T11:30:41.580Z,36.30
2018-09-27T11:34:14.814Z,36.50
2018-09-27T11:37:48.039Z,35.50
2018-09-27T11:41:21.281Z,35.30
2018-09-27T11:44:54.512Z,35.40
2018-09-27T11:48:27.743Z,34.90
2018-09-27T11:52:00.976Z,34.60
2018-09-27T11:55:34.204Z,33.90
2018-09-27T11:59:07.502Z,33.10
2018-09-27T12:02:40.689Z,33.40
2018-09-27T12:06:13.903Z,34.00
2018-09-27T12:09:47.134Z,34.50
2018-09-27T12:13:20.431Z,34.80
2018-09-27T12:16:53.616Z,35.00
2018-09-27T12:20:26.865Z,34.20
2018-09-27T12:24:00.084Z,32.70
2018-09-27T12:27:33.335Z,32.30
2018-09-27T12:31:06.873Z,32.40
2018-09-27T12:34:40.092Z,33.20
2018-09-27T12:38:13.334Z,33.20
2018-09-27T12:41:46.630Z,32.30
2018-09-27T12:45:19.849Z,32.70
2018-09-27T12:48:53.114Z,31.60
2018-09-27T12:52:26.385Z,31.40
2018-09-27T12:55:59.590Z,31.00
2018-09-27T12:59:32.804Z,31.10
2018-09-27T13:03:06.027Z,30.30
2018-09-27T13:06:39.269Z,30.20
2018-09-27T13:10:12.550Z,30.30
2018-09-27T13:13:45.746Z,30.90
2018-09-27T13:17:19.179Z,30.10
2018-09-27T13:20:52.236Z,28.40
2018-09-27T13:24:25.484Z,26.70
2018-09-27T13:27:58.725Z,27.00
2018-09-27T13:31:31.957Z,27.70
2018-09-27T13:35:05.197Z,27.40
2018-09-27T13:38:38.427Z,27.10
2018-09-27T13:42:11.656Z,27.20
2018-09-27T13:45:44.878Z,27.60
2018-09-27T13:49:18.120Z,27.80
2018-09-27T13:52:51.353Z,28.20
2018-09-27T13:56:24.592Z,28.60
2018-09-27T13:59:57.817Z,29.10
2018-09-27T14:03:31.137Z,29.10
2018-09-27T14:07:04.383Z,27.90
2018-09-27T14:10:38.044Z,27.30
2018-09-27T14:14:11.320Z,27.00
2018-09-27T14:17:44.553Z,26.60
2018-09-27T14:21:17.779Z,26.10
2018-09-27T14:24:51.009Z,26.30
2018-09-27T14:28:24.255Z,26.10
2018-09-27T14:31:57.480Z,25.60
2018-09-27T14:35:30.739Z,25.80
2018-09-27T14:39:05.373Z,25.60
2018-09-27T14:42:38.655Z,26.00
2018-09-27T14:46:11.862Z,26.30
2018-09-27T14:49:45.097Z,27.20
2018-09-27T14:53:18.305Z,28.00
2018-09-27T14:56:51.608Z,28.10
2018-09-27T15:00:24.845Z,28.20
2018-09-27T15:03:58.080Z,28.70
2018-09-27T15:07:31.299Z,28.90
2018-09-27T15:11:04.548Z,29.70
2018-09-27T15:14:37.850Z,29.80
2018-09-27T15:18:11.041Z,29.40
2018-09-27T15:21:44.279Z,29.10
2018-09-27T15:25:17.492Z,28.50
2018-09-27T15:28:50.721Z,29.00
2018-09-27T15:32:23.951Z,29.80
2018-09-27T15:35:57.166Z,30.00
2018-09-27T15:39:30.417Z,29.90
2018-09-27T15:43:03.656Z,30.00
2018-09-27T15:46:37.693Z,30.00
2018-09-27T15:50:10.978Z,30.60
2018-09-27T15:53:44.212Z,30.90
2018-09-27T15:57:17.447Z,31.60
2018-09-27T16:00:50.672Z,32.10
2018-09-27T16:04:23.922Z,32.50
2018-09-27T16:07:57.139Z,32.60
2018-09-27T16:11:30.351Z,32.90
2018-09-27T16:15:03.585Z,33.10
2018-09-27T16:18:36.821Z,33.20
2018-09-27T16:22:10.112Z,33.50
2018-09-27T16:25:43.351Z,33.90
2018-09-27T16:29:16.624Z,34.40
2018-09-27T16:32:49.828Z,34.80
2018-09-27T16:36:23.052Z,35.20
2018-09-27T16:39:56.264Z,35.60
2018-09-27T16:43:29.487Z,36.30
2018-09-27T16:47:02.830Z,37.10
2018-09-27T16:50:36.048Z,37.80
2018-09-27T16:54:09.280Z,38.40
2018-09-27T16:57:42.852Z,39.10
2018-09-27T17:01:16.071Z,39.60
2018-09-27T17:04:49.296Z,40.00
2018-09-27T17:08:22.541Z,40.30
2018-09-27T17:11:55.767Z,40.40
2018-09-27T17:15:28.998Z,40.60
2018-09-27T17:19:02.287Z,40.90
2018-09-27T17:22:35.536Z,41.10
2018-09-27T17:26:08.746Z,41.50
2018-09-27T17:29:41.995Z,41.90
2018-09-27T17:33:15.271Z,42.30
2018-09-27T17:36:48.464Z,42.60
2018-09-27T17:40:21.746Z,43.00
2018-09-27T17:43:54.999Z,43.60
2018-09-27T17:47:28.216Z,44.00
2018-09-27T17:51:01.457Z,44.60
2018-09-27T17:54:34.704Z,45.50
2018-09-27T17:58:07.936Z,46.00
2018-09-27T18:01:41.194Z,46.50
2018-09-27T18:05:19.160Z,47.10
2018-09-27T18:08:47.636Z,47.40
2018-09-27T18:12:20.850Z,47.40
2018-09-27T18:15:54.085Z,47.50
2018-09-27T18:19:27.320Z,47.80
2018-09-27T18:23:00.550Z,48.20
2018-09-27T18:26:33.791Z,48.60
2018-09-27T18:30:07.034Z,49.00
2018-09-27T18:33:40.245Z,49.40
2018-09-27T18:37:13.499Z,49.70
2018-09-27T18:40:46.716Z,50.10
2018-09-27T18:44:19.938Z,50.30
2018-09-27T18:47:53.157Z,50.60
2018-09-27T18:51:26.455Z,50.80
2018-09-27T18:55:00.307Z,51.10
2018-09-27T18:58:33.554Z,51.70
2018-09-27T19:02:07.075Z,52.20
2018-09-27T19:05:40.301Z,52.60
2018-09-27T19:09:13.546Z,53.50
2018-09-27T19:12:46.810Z,53.30
2018-09-27T19:16:20.101Z,53.70
2018-09-27T19:19:53.332Z,54.00
2018-09-27T19:23:26.577Z,54.30
2018-09-27T19:26:59.795Z,54.50
2018-09-27T19:30:33.019Z,54.80
2018-09-27T19:34:06.233Z,54.90
2018-09-27T19:37:39.464Z,55.20
2018-09-27T19:41:12.690Z,55.30
2018-09-27T19:44:45.947Z,55.50
2018-09-27T19:48:19.177Z,55.80
2018-09-27T19:51:52.388Z,56.00
2018-09-27T19:55:25.626Z,56.90
2018-09-27T19:58:58.864Z,56.30
2018-09-27T20:02:32.153Z,56.50
2018-09-27T20:06:05.495Z,56.70
2018-09-27T20:09:38.723Z,56.90
2018-09-27T20:13:11.947Z,57.10
2018-09-27T20:16:45.272Z,57.30
2018-09-27T20:20:18.416Z,57.40
2018-09-27T20:23:51.744Z,57.60
2018-09-27T20:27:24.972Z,57.90
2018-09-27T20:30:58.204Z,58.10
2018-09-27T20:34:31.444Z,58.40
2018-09-27T20:38:04.725Z,58.50
2018-09-27T20:41:37.967Z,59.00
2018-09-27T20:45:11.209Z,59.60
2018-09-27T20:48:44.428Z,60.00
2018-09-27T20:52:17.677Z,60.10
2018-09-27T20:55:50.892Z,60.10
2018-09-27T20:59:24.244Z,60.70
2018-09-27T21:02:57.451Z,60.50
2018-09-27T21:06:30.708Z,60.70
2018-09-27T21:10:03.936Z,61.00
2018-09-27T21:13:37.161Z,61.10
2018-09-27T21:17:10.381Z,61.40
2018-09-27T21:20:43.584Z,61.60
2018-09-27T21:24:16.806Z,61.60
2018-09-27T21:27:50.031Z,61.80
2018-09-27T21:31:23.273Z,62.20
2018-09-27T21:34:56.495Z,62.90
2018-09-27T21:38:29.715Z,64.00
2018-09-27T21:42:02.932Z,65.00
2018-09-27T21:45:36.475Z,65.70
2018-09-27T21:49:09.704Z,65.80
2018-09-27T21:52:42.925Z,66.20
2018-09-27T21:56:16.168Z,66.50
2018-09-27T21:59:49.403Z,67.10
2018-09-27T22:03:23.629Z,67.50
2018-09-27T22:06:56.840Z,67.80
2018-09-27T22:10:30.077Z,68.20
2018-09-27T22:14:03.277Z,68.50
2018-09-27T22:17:36.503Z,68.80
2018-09-27T22:21:09.752Z,69.40
2018-09-27T22:24:42.965Z,70.10
2018-09-27T22:28:16.197Z,70.30
2018-09-27T22:31:49.442Z,70.90
2018-09-27T22:35:22.916Z,71.50
2018-09-27T22:38:56.142Z,71.70
2018-09-27T22:42:29.370Z,72.30
2018-09-27T22:46:02.582Z,72.70
2018-09-27T22:49:35.824Z,73.00
2018-09-27T22:53:09.048Z,73.10
2018-09-27T22:56:42.304Z,73.30
2018-09-27T23:00:15.527Z,73.50
2018-09-27T23:03:48.788Z,73.60
2018-09-27T23:07:22.005Z,74.00
2018-09-27T23:10:55.228Z,74.30
2018-09-27T23:14:28.447Z,74.90
2018-09-27T23:18:01.663Z,75.10
2018-09-27T23:21:34.869Z,75.60
2018-09-27T23:25:08.421Z,75.90
2018-09-27T23:28:41.688Z,76.50
2018-09-27T23:32:14.933Z,76.70
2018-09-27T23:35:48.148Z,77.00
2018-09-27T23:39:21.379Z,77.10
2018-09-27T23:42:54.608Z,77.40
2018-09-27T23:46:27.835Z,77.50
2018-09-27T23:50:01.137Z,77.40
2018-09-27T23:53:34.355Z,77.60
2018-09-27T23:57:07.599Z,77.70
